sensor_id;sensor_type;location;lat;lon;timestamp;temperature;humidity
65559;DHT22;52203;51.998;5.140;2022-09-09T00:02:14;8.87;118.99
65559;DHT22;52203;51.998;5.140;2022-09-09T00:05:01;8.83;118.99
65559;DHT22;52203;51.998;5.140;2022-09-09T00:07:51;8.80;118.99
65559;DHT22;52203;51.998;5.140;2022-09-09T00:15:42;8.72;118.99
65559;DHT22;52203;51.998;5.140;2022-09-09T00:18:26;8.75;118.99
65559;DHT22;52203;51.998;5.140;2022-09-09T00:21:04;8.65;118.99
65559;DHT22;52203;51.998;5.140;2022-09-09T00:23:45;8.63;118.99
65559;DHT22;52203;51.998;5.140;2022-09-09T00:31:42;8.49;118.99
65559;DHT22;52203;51.998;5.140;2022-09-09T00:34:16;8.47;118.99
65559;DHT22;52203;51.998;5.140;2022-09-09T00:36:45;8.53;118.99
65559;DHT22;52203;51.998;5.140;2022-09-09T00:39:46;8.45;118.99
65559;DHT22;52203;51.998;5.140;2022-09-09T00:42:19;8.46;118.99
65559;DHT22;52203;51.998;5.140;2022-09-09T00:50:32;8.35;118.99
65559;DHT22;52203;51.998;5.140;2022-09-09T00:53:04;8.34;118.99
65559;DHT22;52203;51.998;5.140;2022-09-09T00:58:31;8.31;118.99
65559;DHT22;52203;51.998;5.140;2022-09-09T01:01:09;8.33;118.99
65559;DHT22;52203;51.998;5.140;2022-09-09T01:03:52;8.28;118.99
65559;DHT22;52203;51.998;5.140;2022-09-09T01:06:30;8.27;118.99
65559;DHT22;52203;51.998;5.140;2022-09-09T01:14:24;8.32;118.99
65559;DHT22;52203;51.998;5.140;2022-09-09T01:16:59;8.26;118.99
65559;DHT22;52203;51.998;5.140;2022-09-09T01:27:35;8.29;118.99
65559;DHT22;52203;51.998;5.140;2022-09-09T01:30:07;8.23;118.99
65559;DHT22;52203;51.998;5.140;2022-09-09T01:32:53;8.21;118.99
65559;DHT22;52203;51.998;5.140;2022-09-09T01:37:49;8.17;118.99
65559;DHT22;52203;51.998;5.140;2022-09-09T01:40:14;8.12;118.99
65559;DHT22;52203;51.998;5.140;2022-09-09T01:42:40;8.13;118.99
65559;DHT22;52203;51.998;5.140;2022-09-09T01:45:06;8.08;118.99
65559;DHT22;52203;51.998;5.140;2022-09-09T01:47:32;8.12;118.99
65559;DHT22;52203;51.998;5.140;2022-09-09T01:49:58;8.11;118.99
65559;DHT22;52203;51.998;5.140;2022-09-09T01:52:26;8.09;118.99
65559;DHT22;52203;51.998;5.140;2022-09-09T01:54:51;8.14;118.99
65559;DHT22;52203;51.998;5.140;2022-09-09T01:57:37;8.15;118.99
65559;DHT22;52203;51.998;5.140;2022-09-09T02:00:07;8.12;118.99
65559;DHT22;52203;51.998;5.140;2022-09-09T02:05:51;8.16;118.99
65559;DHT22;52203;51.998;5.140;2022-09-09T02:08:24;8.16;118.99
65559;DHT22;52203;51.998;5.140;2022-09-09T02:11:10;8.14;118.99
65559;DHT22;52203;51.998;5.140;2022-09-09T02:13:38;8.11;118.99
65559;DHT22;52203;51.998;5.140;2022-09-09T02:16:13;8.15;118.99
65559;DHT22;52203;51.998;5.140;2022-09-09T02:21:11;8.09;118.99
65559;DHT22;52203;51.998;5.140;2022-09-09T02:23:38;8.09;118.99
65559;DHT22;52203;51.998;5.140;2022-09-09T02:26:05;8.00;118.99
65559;DHT22;52203;51.998;5.140;2022-09-09T02:28:34;8.02;118.99
65559;DHT22;52203;51.998;5.140;2022-09-09T02:31:02;7.99;118.99
65559;DHT22;52203;51.998;5.140;2022-09-09T02:33:39;7.93;118.99
65559;DHT22;52203;51.998;5.140;2022-09-09T02:36:07;7.93;118.99
65559;DHT22;52203;51.998;5.140;2022-09-09T02:38:38;8.00;118.99
65559;DHT22;52203;51.998;5.140;2022-09-09T02:41:05;7.84;118.99
65559;DHT22;52203;51.998;5.140;2022-09-09T02:43:35;7.79;118.99
65559;DHT22;52203;51.998;5.140;2022-09-09T02:46:29;7.75;118.99
65559;DHT22;52203;51.998;5.140;2022-09-09T02:49:01;7.77;118.99
65559;DHT22;52203;51.998;5.140;2022-09-09T02:54:27;7.76;118.99
65559;DHT22;52203;51.998;5.140;2022-09-09T02:59:36;7.61;118.99
65559;DHT22;52203;51.998;5.140;2022-09-09T03:02:02;7.52;118.99
65559;DHT22;52203;51.998;5.140;2022-09-09T03:04:28;7.59;118.99
65559;DHT22;52203;51.998;5.140;2022-09-09T03:06:55;7.52;118.99
65559;DHT22;52203;51.998;5.140;2022-09-09T03:09:21;7.58;118.99
65559;DHT22;52203;51.998;5.140;2022-09-09T03:11:46;7.47;118.99
65559;DHT22;52203;51.998;5.140;2022-09-09T03:14:12;7.44;118.99
65559;DHT22;52203;51.998;5.140;2022-09-09T03:16:38;7.40;118.99
65559;DHT22;52203;51.998;5.140;2022-09-09T03:19:03;7.46;118.99
65559;DHT22;52203;51.998;5.140;2022-09-09T03:21:29;7.42;118.99
65559;DHT22;52203;51.998;5.140;2022-09-09T03:23:55;7.33;118.99
65559;DHT22;52203;51.998;5.140;2022-09-09T03:26:21;7.39;118.99
65559;DHT22;52203;51.998;5.140;2022-09-09T03:28:46;7.37;118.99
65559;DHT22;52203;51.998;5.140;2022-09-09T03:31:12;7.39;118.99
65559;DHT22;52203;51.998;5.140;2022-09-09T03:33:38;7.40;118.99
65559;DHT22;52203;51.998;5.140;2022-09-09T03:36:04;7.39;118.99
65559;DHT22;52203;51.998;5.140;2022-09-09T03:38:30;7.45;118.99
65559;DHT22;52203;51.998;5.140;2022-09-09T03:40:56;7.43;118.99
65559;DHT22;52203;51.998;5.140;2022-09-09T03:43:26;7.54;118.99
65559;DHT22;52203;51.998;5.140;2022-09-09T03:45:52;7.48;118.99
65559;DHT22;52203;51.998;5.140;2022-09-09T03:48:18;7.65;118.99
65559;DHT22;52203;51.998;5.140;2022-09-09T03:50:48;7.67;118.99
65559;DHT22;52203;51.998;5.140;2022-09-09T03:53:14;7.74;118.99
65559;DHT22;52203;51.998;5.140;2022-09-09T03:55:46;7.75;118.99
65559;DHT22;52203;51.998;5.140;2022-09-09T03:58:15;7.74;118.99
65559;DHT22;52203;51.998;5.140;2022-09-09T04:00:41;7.83;118.99
65559;DHT22;52203;51.998;5.140;2022-09-09T04:03:10;7.84;118.99
65559;DHT22;52203;51.998;5.140;2022-09-09T04:05:39;7.86;118.99
65559;DHT22;52203;51.998;5.140;2022-09-09T04:08:06;7.91;118.99
65559;DHT22;52203;51.998;5.140;2022-09-09T04:10:32;7.96;118.99
65559;DHT22;52203;51.998;5.140;2022-09-09T04:12:58;7.96;118.99
65559;DHT22;52203;51.998;5.140;2022-09-09T04:15:25;7.94;118.99
65559;DHT22;52203;51.998;5.140;2022-09-09T04:17:50;7.96;118.99
65559;DHT22;52203;51.998;5.140;2022-09-09T04:20:16;7.90;118.99
65559;DHT22;52203;51.998;5.140;2022-09-09T04:22:42;7.91;118.99
65559;DHT22;52203;51.998;5.140;2022-09-09T04:25:07;7.97;118.99
65559;DHT22;52203;51.998;5.140;2022-09-09T04:27:33;7.93;118.99
65559;DHT22;52203;51.998;5.140;2022-09-09T04:29:59;7.89;118.99
65559;DHT22;52203;51.998;5.140;2022-09-09T04:32:24;7.90;118.99
65559;DHT22;52203;51.998;5.140;2022-09-09T04:34:52;7.89;118.99
65559;DHT22;52203;51.998;5.140;2022-09-09T04:37:18;7.89;118.99
65559;DHT22;52203;51.998;5.140;2022-09-09T04:39:43;7.89;118.99
65559;DHT22;52203;51.998;5.140;2022-09-09T04:42:10;7.89;118.99
65559;DHT22;52203;51.998;5.140;2022-09-09T04:44:36;7.83;118.99
65559;DHT22;52203;51.998;5.140;2022-09-09T04:47:02;7.84;118.99
65559;DHT22;52203;51.998;5.140;2022-09-09T04:49:27;7.87;118.99
65559;DHT22;52203;51.998;5.140;2022-09-09T04:51:53;7.90;118.99
65559;DHT22;52203;51.998;5.140;2022-09-09T04:54:18;7.92;118.99
65559;DHT22;52203;51.998;5.140;2022-09-09T04:56:44;7.89;118.99
65559;DHT22;52203;51.998;5.140;2022-09-09T04:59:10;7.90;118.99
65559;DHT22;52203;51.998;5.140;2022-09-09T05:01:35;7.91;118.99
65559;DHT22;52203;51.998;5.140;2022-09-09T05:04:02;7.89;118.99
65559;DHT22;52203;51.998;5.140;2022-09-09T05:06:28;7.89;118.99
65559;DHT22;52203;51.998;5.140;2022-09-09T05:08:56;7.97;118.99
65559;DHT22;52203;51.998;5.140;2022-09-09T05:11:28;7.97;118.99
65559;DHT22;52203;51.998;5.140;2022-09-09T05:13:54;7.99;118.99
65559;DHT22;52203;51.998;5.140;2022-09-09T05:16:21;8.02;118.99
65559;DHT22;52203;51.998;5.140;2022-09-09T05:18:46;8.01;118.99
65559;DHT22;52203;51.998;5.140;2022-09-09T05:21:13;8.04;118.99
65559;DHT22;52203;51.998;5.140;2022-09-09T05:23:39;8.02;118.99
65559;DHT22;52203;51.998;5.140;2022-09-09T05:26:06;8.09;118.99
65559;DHT22;52203;51.998;5.140;2022-09-09T05:28:34;8.03;118.99
65559;DHT22;52203;51.998;5.140;2022-09-09T05:31:04;8.01;118.99
65559;DHT22;52203;51.998;5.140;2022-09-09T05:33:31;7.99;118.99
65559;DHT22;52203;51.998;5.140;2022-09-09T05:36:02;8.06;118.99
65559;DHT22;52203;51.998;5.140;2022-09-09T05:38:29;8.00;118.99
65559;DHT22;52203;51.998;5.140;2022-09-09T05:40:55;8.12;118.99
65559;DHT22;52203;51.998;5.140;2022-09-09T05:43:24;8.11;118.99
65559;DHT22;52203;51.998;5.140;2022-09-09T05:46:01;8.09;118.99
65559;DHT22;52203;51.998;5.140;2022-09-09T05:48:34;8.28;118.99
65559;DHT22;52203;51.998;5.140;2022-09-09T05:51:01;8.28;118.99
65559;DHT22;52203;51.998;5.140;2022-09-09T05:53:28;8.32;118.99
65559;DHT22;52203;51.998;5.140;2022-09-09T05:58:33;8.33;118.99
65559;DHT22;52203;51.998;5.140;2022-09-09T06:01:06;8.34;118.99
65559;DHT22;52203;51.998;5.140;2022-09-09T06:03:34;8.37;118.99
65559;DHT22;52203;51.998;5.140;2022-09-09T06:06:03;8.39;118.99
65559;DHT22;52203;51.998;5.140;2022-09-09T06:08:31;8.43;118.99
65559;DHT22;52203;51.998;5.140;2022-09-09T06:11:02;8.57;118.99
65559;DHT22;52203;51.998;5.140;2022-09-09T06:13:28;8.66;118.99
65559;DHT22;52203;51.998;5.140;2022-09-09T06:15:54;8.80;118.99
65559;DHT22;52203;51.998;5.140;2022-09-09T06:18:20;8.87;118.99
65559;DHT22;52203;51.998;5.140;2022-09-09T06:21:00;8.97;118.99
65559;DHT22;52203;51.998;5.140;2022-09-09T06:23:27;8.98;118.99
65559;DHT22;52203;51.998;5.140;2022-09-09T06:26:23;9.09;118.99
65559;DHT22;52203;51.998;5.140;2022-09-09T06:28:50;9.06;118.99
65559;DHT22;52203;51.998;5.140;2022-09-09T06:31:20;9.05;118.99
65559;DHT22;52203;51.998;5.140;2022-09-09T06:33:50;9.10;118.99
65559;DHT22;52203;51.998;5.140;2022-09-09T06:36:20;9.14;118.99
65559;DHT22;52203;51.998;5.140;2022-09-09T06:38:46;9.18;118.99
65559;DHT22;52203;51.998;5.140;2022-09-09T06:41:13;9.27;118.99
65559;DHT22;52203;51.998;5.140;2022-09-09T06:43:39;9.41;118.99
65559;DHT22;52203;51.998;5.140;2022-09-09T06:46:13;9.63;118.99
65559;DHT22;52203;51.998;5.140;2022-09-09T06:48:40;9.74;118.99
65559;DHT22;52203;51.998;5.140;2022-09-09T06:51:20;9.80;118.99
65559;DHT22;52203;51.998;5.140;2022-09-09T06:53:54;9.92;118.99
65559;DHT22;52203;51.998;5.140;2022-09-09T06:56:23;9.99;118.99
65559;DHT22;52203;51.998;5.140;2022-09-09T06:58:52;10.14;118.99
65559;DHT22;52203;51.998;5.140;2022-09-09T07:01:20;10.12;118.99
65559;DHT22;52203;51.998;5.140;2022-09-09T07:03:51;10.29;118.99
65559;DHT22;52203;51.998;5.140;2022-09-09T07:06:18;10.38;118.99
65559;DHT22;52203;51.998;5.140;2022-09-09T07:08:49;10.58;118.99
65559;DHT22;52203;51.998;5.140;2022-09-09T07:11:14;10.84;118.99
65559;DHT22;52203;51.998;5.140;2022-09-09T07:13:40;10.78;118.99
65559;DHT22;52203;51.998;5.140;2022-09-09T07:16:11;10.78;118.99
65559;DHT22;52203;51.998;5.140;2022-09-09T07:18:39;10.74;118.99
65559;DHT22;52203;51.998;5.140;2022-09-09T07:21:05;10.73;118.99
65559;DHT22;52203;51.998;5.140;2022-09-09T07:23:32;10.66;118.99
65559;DHT22;52203;51.998;5.140;2022-09-09T07:25:59;10.66;118.99
65559;DHT22;52203;51.998;5.140;2022-09-09T07:28:25;10.59;118.99
65559;DHT22;52203;51.998;5.140;2022-09-09T07:30:55;10.50;118.99
65559;DHT22;52203;51.998;5.140;2022-09-09T07:33:21;10.50;118.99
65559;DHT22;52203;51.998;5.140;2022-09-09T07:35:47;10.57;118.99
65559;DHT22;52203;51.998;5.140;2022-09-09T07:38:13;10.59;118.99
65559;DHT22;52203;51.998;5.140;2022-09-09T07:40:40;10.67;118.99
65559;DHT22;52203;51.998;5.140;2022-09-09T07:43:05;10.60;118.99
65559;DHT22;52203;51.998;5.140;2022-09-09T07:45:33;10.49;118.99
65559;DHT22;52203;51.998;5.140;2022-09-09T07:48:00;10.48;118.99
65559;DHT22;52203;51.998;5.140;2022-09-09T07:50:26;10.46;118.99
65559;DHT22;52203;51.998;5.140;2022-09-09T07:52:52;10.42;118.99
65559;DHT22;52203;51.998;5.140;2022-09-09T07:55:22;10.41;118.99
65559;DHT22;52203;51.998;5.140;2022-09-09T07:57:51;10.40;118.99
65559;DHT22;52203;51.998;5.140;2022-09-09T08:00:17;10.42;118.99
65559;DHT22;52203;51.998;5.140;2022-09-09T08:02:47;10.39;118.99
65559;DHT22;52203;51.998;5.140;2022-09-09T08:05:13;10.42;118.99
65559;DHT22;52203;51.998;5.140;2022-09-09T08:07:40;10.43;118.99
65559;DHT22;52203;51.998;5.140;2022-09-09T08:10:06;10.43;118.99
65559;DHT22;52203;51.998;5.140;2022-09-09T08:12:32;10.51;118.99
65559;DHT22;52203;51.998;5.140;2022-09-09T08:14:58;10.53;118.99
65559;DHT22;52203;51.998;5.140;2022-09-09T08:17:30;10.64;118.99
65559;DHT22;52203;51.998;5.140;2022-09-09T08:19:56;10.69;118.99
65559;DHT22;52203;51.998;5.140;2022-09-09T08:22:23;10.72;118.99
65559;DHT22;52203;51.998;5.140;2022-09-09T08:24:49;10.80;118.99
65559;DHT22;52203;51.998;5.140;2022-09-09T08:27:15;10.86;118.99
65559;DHT22;52203;51.998;5.140;2022-09-09T08:29:40;10.73;118.99
65559;DHT22;52203;51.998;5.140;2022-09-09T08:32:06;10.71;118.99
65559;DHT22;52203;51.998;5.140;2022-09-09T08:34:32;10.70;118.99
65559;DHT22;52203;51.998;5.140;2022-09-09T08:36:57;10.66;118.99
65559;DHT22;52203;51.998;5.140;2022-09-09T08:39:23;10.70;118.99
65559;DHT22;52203;51.998;5.140;2022-09-09T08:58:22;10.65;118.99
65559;DHT22;52203;51.998;5.140;2022-09-09T09:03:57;10.54;118.99
65559;DHT22;52203;51.998;5.140;2022-09-09T09:12:22;10.53;118.99
65559;DHT22;52203;51.998;5.140;2022-09-09T09:14:48;10.57;118.99
65559;DHT22;52203;51.998;5.140;2022-09-09T09:17:21;10.60;118.99
65559;DHT22;52203;51.998;5.140;2022-09-09T09:19:48;10.64;118.99
65559;DHT22;52203;51.998;5.140;2022-09-09T09:22:30;10.65;118.99
65559;DHT22;52203;51.998;5.140;2022-09-09T09:25:20;10.49;118.99
65559;DHT22;52203;51.998;5.140;2022-09-09T09:27:59;10.52;118.99
65559;DHT22;52203;51.998;5.140;2022-09-09T09:30:36;10.49;118.99
65559;DHT22;52203;51.998;5.140;2022-09-09T09:33:31;10.49;118.99
65559;DHT22;52203;51.998;5.140;2022-09-09T09:35:57;10.50;118.99
65559;DHT22;52203;51.998;5.140;2022-09-09T09:38:26;10.48;118.99
65559;DHT22;52203;51.998;5.140;2022-09-09T09:40:58;10.62;118.99
65559;DHT22;52203;51.998;5.140;2022-09-09T09:43:29;10.68;118.99
65559;DHT22;52203;51.998;5.140;2022-09-09T09:45:56;10.67;118.99
65559;DHT22;52203;51.998;5.140;2022-09-09T09:48:26;10.75;118.99
65559;DHT22;52203;51.998;5.140;2022-09-09T09:50:54;10.79;118.99
65559;DHT22;52203;51.998;5.140;2022-09-09T09:53:26;10.79;118.99
65559;DHT22;52203;51.998;5.140;2022-09-09T09:56:10;10.78;118.99
65559;DHT22;52203;51.998;5.140;2022-09-09T10:03:54;10.78;118.99
65559;DHT22;52203;51.998;5.140;2022-09-09T10:06:34;10.72;118.99
65559;DHT22;52203;51.998;5.140;2022-09-09T10:09:01;10.67;118.99
65559;DHT22;52203;51.998;5.140;2022-09-09T10:14:51;10.80;118.99
65559;DHT22;52203;51.998;5.140;2022-09-09T10:17:53;10.97;118.99
65559;DHT22;52203;51.998;5.140;2022-09-09T10:26:41;11.53;118.99
65559;DHT22;52203;51.998;5.140;2022-09-09T10:29:27;11.45;118.99
65559;DHT22;52203;51.998;5.140;2022-09-09T10:34:56;11.69;118.99
65559;DHT22;52203;51.998;5.140;2022-09-09T10:37:51;11.88;118.99
65559;DHT22;52203;51.998;5.140;2022-09-09T10:45:48;12.34;118.99
65559;DHT22;52203;51.998;5.140;2022-09-09T10:48:28;12.74;118.99
65559;DHT22;52203;51.998;5.140;2022-09-09T10:56:14;12.77;118.99
65559;DHT22;52203;51.998;5.140;2022-09-09T11:01:30;12.26;118.99
65559;DHT22;52203;51.998;5.140;2022-09-09T11:07:07;11.86;118.99
65559;DHT22;52203;51.998;5.140;2022-09-09T11:09:44;11.76;118.99
65559;DHT22;52203;51.998;5.140;2022-09-09T11:12:17;11.73;118.99
65559;DHT22;52203;51.998;5.140;2022-09-09T11:14:49;11.78;118.99
65559;DHT22;52203;51.998;5.140;2022-09-09T11:17:18;11.82;118.99
65559;DHT22;52203;51.998;5.140;2022-09-09T11:19:46;11.74;118.99
65559;DHT22;52203;51.998;5.140;2022-09-09T11:22:37;11.73;118.99
65559;DHT22;52203;51.998;5.140;2022-09-09T11:25:23;11.64;118.99
65559;DHT22;52203;51.998;5.140;2022-09-09T11:34:01;11.39;118.99
65559;DHT22;52203;51.998;5.140;2022-09-09T11:36:48;11.36;118.99
65559;DHT22;52203;51.998;5.140;2022-09-09T11:42:22;11.38;118.99
65559;DHT22;52203;51.998;5.140;2022-09-09T11:44:49;11.68;118.99
65559;DHT22;52203;51.998;5.140;2022-09-09T11:47:29;11.53;118.99
65559;DHT22;52203;51.998;5.140;2022-09-09T11:50:32;11.63;118.99
65559;DHT22;52203;51.998;5.140;2022-09-09T11:53:17;11.53;118.99
65559;DHT22;52203;51.998;5.140;2022-09-09T11:55:46;11.55;118.99
65559;DHT22;52203;51.998;5.140;2022-09-09T12:00:41;11.37;118.99
65559;DHT22;52203;51.998;5.140;2022-09-09T12:05:58;11.58;118.99
65559;DHT22;52203;51.998;5.140;2022-09-09T12:08:27;11.53;118.99
65559;DHT22;52203;51.998;5.140;2022-09-09T12:10:58;11.56;118.99
65559;DHT22;52203;51.998;5.140;2022-09-09T12:13:28;11.45;118.99
65559;DHT22;52203;51.998;5.140;2022-09-09T12:16:01;11.60;118.99
65559;DHT22;52203;51.998;5.140;2022-09-09T12:24:11;11.54;118.99
65559;DHT22;52203;51.998;5.140;2022-09-09T12:26:43;11.61;118.99
65559;DHT22;52203;51.998;5.140;2022-09-09T12:32:14;12.00;118.99
65559;DHT22;52203;51.998;5.140;2022-09-09T12:37:49;11.90;118.99
65559;DHT22;52203;51.998;5.140;2022-09-09T12:40:29;12.37;118.99
65559;DHT22;52203;51.998;5.140;2022-09-09T12:42:56;12.50;118.99
65559;DHT22;52203;51.998;5.140;2022-09-09T12:45:26;12.60;118.99
65559;DHT22;52203;51.998;5.140;2022-09-09T12:47:59;12.49;118.99
65559;DHT22;52203;51.998;5.140;2022-09-09T12:50:37;12.45;118.99
65559;DHT22;52203;51.998;5.140;2022-09-09T12:53:11;12.07;118.99
65559;DHT22;52203;51.998;5.140;2022-09-09T12:56:04;11.99;118.99
65559;DHT22;52203;51.998;5.140;2022-09-09T12:58:33;11.98;118.99
65559;DHT22;52203;51.998;5.140;2022-09-09T13:01:01;11.74;118.99
65559;DHT22;52203;51.998;5.140;2022-09-09T13:03:30;11.60;118.99
65559;DHT22;52203;51.998;5.140;2022-09-09T13:06:12;11.51;118.99
65559;DHT22;52203;51.998;5.140;2022-09-09T13:08:38;11.40;118.99
65559;DHT22;52203;51.998;5.140;2022-09-09T13:11:09;11.63;118.99
65559;DHT22;52203;51.998;5.140;2022-09-09T13:13:38;11.73;118.99
65559;DHT22;52203;51.998;5.140;2022-09-09T13:16:06;11.97;118.99
65559;DHT22;52203;51.998;5.140;2022-09-09T13:18:40;12.05;118.99
65559;DHT22;52203;51.998;5.140;2022-09-09T13:21:06;12.03;118.99
65559;DHT22;52203;51.998;5.140;2022-09-09T13:23:37;12.04;118.99
65559;DHT22;52203;51.998;5.140;2022-09-09T13:26:25;12.12;118.99
65559;DHT22;52203;51.998;5.140;2022-09-09T13:28:52;12.02;118.99
65559;DHT22;52203;51.998;5.140;2022-09-09T13:31:28;12.04;118.99
65559;DHT22;52203;51.998;5.140;2022-09-09T13:33:54;12.06;118.99
65559;DHT22;52203;51.998;5.140;2022-09-09T13:36:34;11.88;118.99
65559;DHT22;52203;51.998;5.140;2022-09-09T13:39:02;11.85;118.99
65559;DHT22;52203;51.998;5.140;2022-09-09T13:41:43;11.85;118.99
65559;DHT22;52203;51.998;5.140;2022-09-09T13:44:25;11.85;118.99
65559;DHT22;52203;51.998;5.140;2022-09-09T13:47:15;11.88;118.99
65559;DHT22;52203;51.998;5.140;2022-09-09T13:49:42;11.78;118.99
65559;DHT22;52203;51.998;5.140;2022-09-09T13:52:14;11.67;118.99
65559;DHT22;52203;51.998;5.140;2022-09-09T13:54:42;11.53;118.99
65559;DHT22;52203;51.998;5.140;2022-09-09T13:57:22;11.62;118.99
65559;DHT22;52203;51.998;5.140;2022-09-09T13:59:48;11.47;118.99
65559;DHT22;52203;51.998;5.140;2022-09-09T14:02:15;11.37;118.99
65559;DHT22;52203;51.998;5.140;2022-09-09T14:04:42;11.34;118.99
65559;DHT22;52203;51.998;5.140;2022-09-09T14:07:16;11.26;118.99
65559;DHT22;52203;51.998;5.140;2022-09-09T14:09:42;11.25;118.99
65559;DHT22;52203;51.998;5.140;2022-09-09T14:12:11;11.19;118.99
65559;DHT22;52203;51.998;5.140;2022-09-09T14:14:37;11.19;118.99
65559;DHT22;52203;51.998;5.140;2022-09-09T14:17:04;11.49;118.99
65559;DHT22;52203;51.998;5.140;2022-09-09T14:19:30;11.58;118.99
65559;DHT22;52203;51.998;5.140;2022-09-09T14:21:57;11.59;118.99
65559;DHT22;52203;51.998;5.140;2022-09-09T14:24:22;11.84;118.99
65559;DHT22;52203;51.998;5.140;2022-09-09T14:26:48;11.79;118.99
65559;DHT22;52203;51.998;5.140;2022-09-09T14:29:14;12.28;118.99
65559;DHT22;52203;51.998;5.140;2022-09-09T14:31:40;12.59;118.99
65559;DHT22;52203;51.998;5.140;2022-09-09T14:34:06;12.43;118.99
65559;DHT22;52203;51.998;5.140;2022-09-09T14:36:31;12.05;118.99
65559;DHT22;52203;51.998;5.140;2022-09-09T14:38:57;12.11;118.99
65559;DHT22;52203;51.998;5.140;2022-09-09T14:41:23;11.94;118.99
65559;DHT22;52203;51.998;5.140;2022-09-09T14:43:50;11.98;118.99
65559;DHT22;52203;51.998;5.140;2022-09-09T14:46:18;11.96;118.99
65559;DHT22;52203;51.998;5.140;2022-09-09T14:48:44;11.97;118.99
65559;DHT22;52203;51.998;5.140;2022-09-09T14:51:16;11.72;118.99
65559;DHT22;52203;51.998;5.140;2022-09-09T14:53:43;11.52;118.99
65559;DHT22;52203;51.998;5.140;2022-09-09T14:56:18;11.48;118.99
65559;DHT22;52203;51.998;5.140;2022-09-09T14:58:44;11.52;118.99
65559;DHT22;52203;51.998;5.140;2022-09-09T15:01:14;11.51;118.99
65559;DHT22;52203;51.998;5.140;2022-09-09T15:03:41;11.48;118.99
65559;DHT22;52203;51.998;5.140;2022-09-09T15:06:13;11.54;118.99
65559;DHT22;52203;51.998;5.140;2022-09-09T15:08:42;11.39;118.99
65559;DHT22;52203;51.998;5.140;2022-09-09T15:11:09;11.39;118.99
65559;DHT22;52203;51.998;5.140;2022-09-09T15:13:36;11.46;118.99
65559;DHT22;52203;51.998;5.140;2022-09-09T15:16:07;11.47;118.99
65559;DHT22;52203;51.998;5.140;2022-09-09T15:18:33;11.45;118.99
65559;DHT22;52203;51.998;5.140;2022-09-09T15:21:02;11.42;118.99
65559;DHT22;52203;51.998;5.140;2022-09-09T15:23:35;11.41;118.99
65559;DHT22;52203;51.998;5.140;2022-09-09T15:26:01;11.51;118.99
65559;DHT22;52203;51.998;5.140;2022-09-09T15:28:27;11.43;118.99
65559;DHT22;52203;51.998;5.140;2022-09-09T15:30:53;11.57;118.99
65559;DHT22;52203;51.998;5.140;2022-09-09T15:33:20;11.52;118.99
65559;DHT22;52203;51.998;5.140;2022-09-09T15:35:46;11.62;118.99
65559;DHT22;52203;51.998;5.140;2022-09-09T15:38:11;11.46;118.99
65559;DHT22;52203;51.998;5.140;2022-09-09T15:40:40;11.60;118.99
65559;DHT22;52203;51.998;5.140;2022-09-09T15:43:06;11.69;118.99
65559;DHT22;52203;51.998;5.140;2022-09-09T15:45:33;11.75;118.99
65559;DHT22;52203;51.998;5.140;2022-09-09T15:48:03;12.10;118.99
65559;DHT22;52203;51.998;5.140;2022-09-09T15:50:29;12.11;118.99
65559;DHT22;52203;51.998;5.140;2022-09-09T15:52:56;11.89;118.99
65559;DHT22;52203;51.998;5.140;2022-09-09T15:55:22;11.78;118.99
65559;DHT22;52203;51.998;5.140;2022-09-09T15:57:49;12.01;118.99
65559;DHT22;52203;51.998;5.140;2022-09-09T16:00:17;11.86;118.99
65559;DHT22;52203;51.998;5.140;2022-09-09T16:02:43;11.74;118.99
65559;DHT22;52203;51.998;5.140;2022-09-09T16:05:09;11.73;118.99
65559;DHT22;52203;51.998;5.140;2022-09-09T16:07:35;11.71;118.99
65559;DHT22;52203;51.998;5.140;2022-09-09T16:10:01;11.63;118.99
65559;DHT22;52203;51.998;5.140;2022-09-09T16:12:27;11.60;118.99
65559;DHT22;52203;51.998;5.140;2022-09-09T16:14:53;11.55;118.99
65559;DHT22;52203;51.998;5.140;2022-09-09T16:17:18;11.56;118.99
65559;DHT22;52203;51.998;5.140;2022-09-09T16:19:45;11.51;118.99
65559;DHT22;52203;51.998;5.140;2022-09-09T16:22:11;11.48;118.99
65559;DHT22;52203;51.998;5.140;2022-09-09T16:24:37;11.45;118.99
65559;DHT22;52203;51.998;5.140;2022-09-09T16:27:03;11.57;118.99
65559;DHT22;52203;51.998;5.140;2022-09-09T16:29:29;11.61;118.99
65559;DHT22;52203;51.998;5.140;2022-09-09T16:31:55;11.62;118.99
65559;DHT22;52203;51.998;5.140;2022-09-09T16:34:21;11.59;118.99
65559;DHT22;52203;51.998;5.140;2022-09-09T16:36:48;11.55;118.99
65559;DHT22;52203;51.998;5.140;2022-09-09T16:39:15;11.58;118.99
65559;DHT22;52203;51.998;5.140;2022-09-09T16:41:42;11.55;118.99
65559;DHT22;52203;51.998;5.140;2022-09-09T16:44:10;11.53;118.99
65559;DHT22;52203;51.998;5.140;2022-09-09T16:46:38;11.48;118.99
65559;DHT22;52203;51.998;5.140;2022-09-09T16:49:07;11.44;118.99
65559;DHT22;52203;51.998;5.140;2022-09-09T16:51:37;11.55;118.99
65559;DHT22;52203;51.998;5.140;2022-09-09T16:54:05;11.57;118.99
65559;DHT22;52203;51.998;5.140;2022-09-09T16:56:39;11.58;118.99
65559;DHT22;52203;51.998;5.140;2022-09-09T16:59:11;11.62;118.99
65559;DHT22;52203;51.998;5.140;2022-09-09T17:01:39;11.69;118.99
65559;DHT22;52203;51.998;5.140;2022-09-09T17:04:12;11.63;118.99
65559;DHT22;52203;51.998;5.140;2022-09-09T17:06:39;11.58;118.99
65559;DHT22;52203;51.998;5.140;2022-09-09T17:09:10;11.58;118.99
65559;DHT22;52203;51.998;5.140;2022-09-09T17:11:37;11.56;118.99
65559;DHT22;52203;51.998;5.140;2022-09-09T17:14:05;11.47;118.99
65559;DHT22;52203;51.998;5.140;2022-09-09T17:16:34;11.41;118.99
65559;DHT22;52203;51.998;5.140;2022-09-09T17:19:01;11.37;118.99
65559;DHT22;52203;51.998;5.140;2022-09-09T17:21:28;11.30;118.99
65559;DHT22;52203;51.998;5.140;2022-09-09T17:23:56;11.26;118.99
65559;DHT22;52203;51.998;5.140;2022-09-09T17:26:24;11.20;118.99
65559;DHT22;52203;51.998;5.140;2022-09-09T17:28:52;11.16;118.99
65559;DHT22;52203;51.998;5.140;2022-09-09T17:31:19;11.14;118.99
65559;DHT22;52203;51.998;5.140;2022-09-09T17:33:51;11.09;118.99
65559;DHT22;52203;51.998;5.140;2022-09-09T17:36:23;11.04;118.99
65559;DHT22;52203;51.998;5.140;2022-09-09T17:38:51;10.97;118.99
65559;DHT22;52203;51.998;5.140;2022-09-09T17:41:19;10.97;118.99
65559;DHT22;52203;51.998;5.140;2022-09-09T17:43:46;10.94;118.99
65559;DHT22;52203;51.998;5.140;2022-09-09T17:46:16;10.92;118.99
65559;DHT22;52203;51.998;5.140;2022-09-09T17:48:43;10.90;118.99
65559;DHT22;52203;51.998;5.140;2022-09-09T17:51:13;10.84;118.99
65559;DHT22;52203;51.998;5.140;2022-09-09T17:53:44;10.81;118.99
65559;DHT22;52203;51.998;5.140;2022-09-09T17:56:11;10.68;118.99